createdAt,value
2023-05-05T00:01:20.224Z,100608.25
2023-05-05T00:06:23.057Z,100599.69
2023-05-05T00:11:27.453Z,100599.19
2023-05-05T00:16:30.223Z,100598.66
2023-05-05T00:21:33.077Z,100597.41
2023-05-05T00:26:37.190Z,100594.09
2023-05-05T00:31:40.184Z,100590.16
2023-05-05T00:36:42.983Z,100590.94
2023-05-05T00:41:47.233Z,100579.91
2023-05-05T00:46:50.129Z,100574.13
2023-05-05T00:51:53.032Z,100567.28
2023-05-05T00:56:57.219Z,100571.50
2023-05-05T01:02:00.150Z,100568.16
2023-05-05T01:07:08.699Z,100560.31
2023-05-05T01:12:17.121Z,100564.50
2023-05-05T01:17:21.192Z,100570.56
2023-05-05T01:22:25.831Z,100566.25
2023-05-05T01:27:38.306Z,100554.06
2023-05-05T01:32:44.606Z,100557.06
2023-05-05T01:37:48.752Z,100554.84
2023-05-05T01:42:51.536Z,100547.97
2023-05-05T01:47:55.845Z,100565.13
2023-05-05T01:52:59.037Z,100563.63
2023-05-05T01:58:01.797Z,100569.09
2023-05-05T02:03:06.488Z,100572.00
2023-05-05T02:08:09.820Z,100580.88
2023-05-05T02:13:13.467Z,100586.47
2023-05-05T02:18:17.764Z,100577.69
2023-05-05T02:23:20.631Z,100588.50
2023-05-05T02:28:24.250Z,100576.06
2023-05-05T02:33:28.634Z,100583.47
2023-05-05T02:38:31.867Z,100581.75
2023-05-05T02:43:37.780Z,100567.63
2023-05-05T02:48:42.328Z,100566.75
2023-05-05T02:53:45.127Z,100548.63
2023-05-05T02:58:50.079Z,100561.69
2023-05-05T03:03:58.167Z,100564.38
2023-05-05T03:09:07.276Z,100561.94
2023-05-05T03:14:12.880Z,100545.09
2023-05-05T03:19:18.985Z,100551.41
2023-05-05T03:24:24.213Z,100543.28
2023-05-05T03:29:37.356Z,100551.63
2023-05-05T03:34:45.281Z,100548.19
2023-05-05T03:39:48.775Z,100551.94
2023-05-05T03:44:53.430Z,100552.97
2023-05-05T03:50:00.635Z,100550.41
2023-05-05T03:55:03.624Z,100553.19
2023-05-05T04:00:11.758Z,100553.31
2023-05-05T04:05:19.767Z,100555.13
2023-05-05T04:10:22.939Z,100557.06
2023-05-05T04:15:25.792Z,100564.25
2023-05-05T04:20:30.256Z,100569.69
2023-05-05T04:25:33.273Z,100574.19
2023-05-05T04:30:36.503Z,100575.16
2023-05-05T04:35:40.711Z,100573.31
2023-05-05T04:40:43.718Z,100569.78
2023-05-05T04:45:53.647Z,100571.50
2023-05-05T04:50:59.714Z,100567.97
2023-05-05T04:56:02.789Z,100574.94
2023-05-05T05:01:06.079Z,100580.31
2023-05-05T05:06:10.282Z,100585.56
2023-05-05T05:11:13.190Z,100580.19
2023-05-05T05:16:16.159Z,100569.38
2023-05-05T05:21:20.995Z,100578.16
2023-05-05T05:26:24.017Z,100581.59
2023-05-05T05:31:27.090Z,100571.72
2023-05-05T05:36:32.569Z,100566.19
2023-05-05T05:41:35.613Z,100575.06
2023-05-05T05:46:38.980Z,100567.81
2023-05-05T05:51:43.707Z,100571.97
2023-05-05T05:56:46.738Z,100571.03
2023-05-05T06:01:49.676Z,100570.94
2023-05-05T06:06:53.918Z,100571.56
2023-05-05T06:11:56.994Z,100574.97
2023-05-05T06:16:59.884Z,100572.19
2023-05-05T06:22:06.343Z,100581.63
2023-05-05T06:27:10.234Z,100582.38
2023-05-05T06:32:14.181Z,100578.63
2023-05-05T06:37:18.470Z,100583.69
2023-05-05T06:42:21.548Z,100594.06
2023-05-05T06:47:24.401Z,100593.00
2023-05-05T06:52:28.747Z,100575.19
2023-05-05T06:57:31.669Z,100580.13
2023-05-05T07:02:34.638Z,100590.31
2023-05-05T07:07:38.944Z,100581.09
2023-05-05T07:12:41.995Z,100584.84
2023-05-05T07:17:45.136Z,100582.81
2023-05-05T07:22:49.494Z,100579.19
2023-05-05T07:27:52.393Z,100561.81
2023-05-05T07:32:56.710Z,100559.66
2023-05-05T07:38:01.086Z,100568.34
2023-05-05T07:43:04.776Z,100568.66
2023-05-05T07:48:07.681Z,100574.75
2023-05-05T07:53:14.983Z,100572.19
2023-05-05T07:58:18.137Z,100572.53
2023-05-05T08:03:24.520Z,100561.03
2023-05-05T08:08:29.165Z,100569.94
2023-05-05T08:13:32.220Z,100566.53
2023-05-05T08:18:37.503Z,100571.53
2023-05-05T08:23:42.031Z,100570.88
2023-05-05T08:28:44.924Z,100560.47
2023-05-05T08:33:47.789Z,100549.41
2023-05-05T08:38:52.005Z,100552.84
2023-05-05T08:43:54.838Z,100557.34
2023-05-05T08:48:57.655Z,100557.53
2023-05-05T08:54:03.436Z,100547.66
2023-05-05T08:59:06.263Z,100550.13
2023-05-05T09:04:09.357Z,100555.41
2023-05-05T09:09:13.495Z,100547.25
2023-05-05T09:14:16.446Z,100542.72
2023-05-05T09:19:19.331Z,100540.47
2023-05-05T09:24:23.541Z,100546.34
2023-05-05T09:29:26.425Z,100537.72
2023-05-05T09:34:29.209Z,100541.50
2023-05-05T09:39:33.436Z,100539.09
2023-05-05T09:44:36.624Z,100541.22
2023-05-05T09:49:39.433Z,100530.38
2023-05-05T09:54:43.669Z,100539.16
2023-05-05T09:59:56.578Z,100539.88
2023-05-05T10:05:06.289Z,100537.97
2023-05-05T10:10:11.912Z,100519.66
2023-05-05T10:15:15.473Z,100524.78
2023-05-05T10:20:18.275Z,100518.13
2023-05-05T10:25:26.668Z,100503.97
2023-05-05T10:30:31.268Z,100503.47
2023-05-05T10:35:34.609Z,100494.81
2023-05-05T10:40:38.846Z,100487.34
2023-05-05T10:45:41.720Z,100470.06
2023-05-05T10:50:49.064Z,100482.50
2023-05-05T10:55:56.256Z,100478.59
2023-05-05T11:00:59.279Z,100462.63
2023-05-05T11:06:15.776Z,100464.63
2023-05-05T11:11:20.225Z,100462.06
2023-05-05T11:16:44.253Z,100455.38
2023-05-05T11:22:01.004Z,100460.25
2023-05-05T11:27:05.427Z,100442.19
2023-05-05T11:32:15.699Z,100434.25
2023-05-05T11:37:18.671Z,100429.38
2023-05-05T11:42:26.773Z,100429.09
2023-05-05T11:47:32.777Z,100417.03
2023-05-05T11:52:35.691Z,100411.63
2023-05-05T11:57:40.097Z,100409.31
2023-05-05T12:02:43.116Z,100420.19
2023-05-05T12:07:46.065Z,100407.88
2023-05-05T12:12:50.303Z,100410.19
2023-05-05T12:17:53.181Z,100406.28
2023-05-05T12:23:00.989Z,100402.75
2023-05-05T12:28:06.097Z,100401.13
2023-05-05T12:33:09.304Z,100397.59
2023-05-05T12:38:12.312Z,100390.53
2023-05-05T12:43:30.044Z,100383.53
2023-05-05T12:48:32.962Z,100373.78
2023-05-05T12:53:35.835Z,100381.19
2023-05-05T12:58:49.734Z,100375.81
2023-05-05T13:04:06.256Z,100373.16
2023-05-05T13:09:10.192Z,100360.25
2023-05-05T13:14:14.589Z,100357.31
2023-05-05T13:19:17.447Z,100351.47
2023-05-05T13:24:28.687Z,100345.47
2023-05-05T13:29:40.106Z,100338.41
2023-05-05T13:34:44.157Z,100335.19
2023-05-05T13:39:47.208Z,100334.22
2023-05-05T13:44:51.633Z,100323.84
2023-05-05T13:49:54.649Z,100315.69
2023-05-05T13:54:57.910Z,100320.22
2023-05-05T14:00:04.772Z,100316.78
2023-05-05T14:05:11.133Z,100303.47
2023-05-05T14:10:14.220Z,100295.31
2023-05-05T14:15:18.932Z,100289.19
2023-05-05T14:20:22.041Z,100291.00
2023-05-05T14:25:25.339Z,100280.16
2023-05-05T14:30:29.687Z,100270.38
2023-05-05T14:35:32.638Z,100273.06
2023-05-05T14:40:35.480Z,100271.38
2023-05-05T14:45:39.892Z,100269.66
2023-05-05T14:50:42.851Z,100261.72
2023-05-05T14:55:45.861Z,100252.56
2023-05-05T15:00:50.108Z,100247.81
2023-05-05T15:05:53.143Z,100251.59
2023-05-05T15:10:55.910Z,100251.31
2023-05-05T15:16:00.071Z,100243.13
2023-05-05T15:21:03.064Z,100240.81
2023-05-05T15:26:05.889Z,100239.41
2023-05-05T15:31:10.283Z,100234.75
2023-05-05T15:36:13.707Z,100236.78
2023-05-05T15:41:16.583Z,100233.84
2023-05-05T15:46:20.814Z,100228.72
2023-05-05T15:51:23.688Z,100218.56
2023-05-05T15:56:27.339Z,100208.53
2023-05-05T16:01:33.379Z,100210.44
2023-05-05T16:06:36.483Z,100202.72
2023-05-05T16:11:39.301Z,100195.38
2023-05-05T16:16:43.884Z,100186.31
2023-05-05T16:21:46.682Z,100183.63
2023-05-05T16:26:49.714Z,100183.50
2023-05-05T16:31:53.977Z,100175.56
2023-05-05T16:36:56.747Z,100174.22
2023-05-05T16:41:59.584Z,100174.81
2023-05-05T16:47:04.138Z,100180.19
2023-05-05T16:52:07.054Z,100184.28
2023-05-05T16:57:09.962Z,100175.28
2023-05-05T17:02:14.288Z,100164.38
2023-05-05T17:07:17.082Z,100161.09
2023-05-05T17:12:19.873Z,100165.81
2023-05-05T17:17:24.269Z,100163.97
2023-05-05T17:22:27.069Z,100141.47
2023-05-05T17:27:29.980Z,100133.25
2023-05-05T17:32:34.108Z,100160.28
2023-05-05T17:37:37.174Z,100163.81
2023-05-05T17:42:40.530Z,100166.66
2023-05-05T17:47:44.811Z,100169.09
2023-05-05T17:52:47.683Z,100176.19
2023-05-05T17:57:50.714Z,100187.94
2023-05-05T18:02:55.763Z,100190.63
2023-05-05T18:07:58.571Z,100198.41
2023-05-05T18:13:01.368Z,100232.41
2023-05-05T18:18:06.071Z,100250.25
2023-05-05T18:23:08.939Z,100219.66
2023-05-05T18:28:12.290Z,100194.22
2023-05-05T18:33:16.546Z,100190.66
2023-05-05T18:38:19.718Z,100195.06
2023-05-05T18:43:22.521Z,100192.50
2023-05-05T18:48:27.845Z,100188.69
2023-05-05T18:53:30.944Z,100191.38
2023-05-05T18:58:33.899Z,100200.31
2023-05-05T19:03:38.523Z,100209.22
2023-05-05T19:08:41.422Z,100201.03
2023-05-05T19:13:44.238Z,100201.03
2023-05-05T19:18:48.413Z,100208.94
2023-05-05T19:23:51.196Z,100201.59
2023-05-05T19:28:54.186Z,100206.97
2023-05-05T19:34:00.802Z,100210.41
2023-05-05T19:39:04.181Z,100229.50
2023-05-05T19:44:06.953Z,100231.94
2023-05-05T19:49:11.178Z,100201.47
2023-05-05T19:54:14.246Z,100206.72
2023-05-05T19:59:17.577Z,100208.56
2023-05-05T20:04:21.711Z,100223.84
2023-05-05T20:09:24.490Z,100221.16
2023-05-05T20:14:27.266Z,100226.41
2023-05-05T20:19:31.540Z,100227.41
2023-05-05T20:24:34.879Z,100218.47
2023-05-05T20:29:37.839Z,100221.88
2023-05-05T20:34:42.151Z,100223.59
2023-05-05T20:39:44.907Z,100230.81
2023-05-05T20:44:47.816Z,100232.50
2023-05-05T20:49:52.133Z,100237.19
2023-05-05T20:54:54.989Z,100242.41
2023-05-05T20:59:57.974Z,100252.19
2023-05-05T21:05:03.210Z,100255.75
2023-05-05T21:10:07.272Z,100261.25
2023-05-05T21:15:11.571Z,100261.13
2023-05-05T21:20:16.361Z,100248.50
2023-05-05T21:25:19.806Z,100238.47
2023-05-05T21:30:23.878Z,100239.44
2023-05-05T21:35:28.071Z,100243.41
2023-05-05T21:40:30.951Z,100251.91
2023-05-05T21:45:33.948Z,100262.44
2023-05-05T21:50:38.114Z,100262.44
2023-05-05T21:55:40.893Z,100264.28
2023-05-05T22:00:44.912Z,100259.59
2023-05-05T22:05:49.191Z,100253.38
2023-05-05T22:10:52.113Z,100255.94
2023-05-05T22:15:54.950Z,100250.69
2023-05-05T22:20:59.068Z,100248.00
2023-05-05T22:26:01.910Z,100250.69
2023-05-05T22:31:04.848Z,100246.16
2023-05-05T22:36:10.056Z,100244.31
2023-05-05T22:41:13.406Z,100246.00
2023-05-05T22:46:16.223Z,100245.16
2023-05-05T22:51:20.334Z,100256.78
2023-05-05T22:56:23.088Z,100237.03
2023-05-05T23:01:25.989Z,100253.50
2023-05-05T23:06:30.257Z,100254.75
2023-05-05T23:11:33.161Z,100262.38
2023-05-05T23:16:36.008Z,100259.22
2023-05-05T23:21:52.199Z,100258.78
2023-05-05T23:26:56.582Z,100263.09
2023-05-05T23:31:59.488Z,100252.16
2023-05-05T23:37:05.917Z,100252.53
2023-05-05T23:42:09.024Z,100261.13
2023-05-05T23:47:11.845Z,100257.06
2023-05-05T23:52:16.069Z,100251.13
2023-05-05T23:57:18.883Z,100253.94
